PWSweather.com
Personal Weather Stations
Station Observations
KJ4AJP
Beautiful Downtown Gardner, Martin, TN 38237

Beautiful Downtown GardnerMartin, TN 38237

Lat: 36.358, Lon: -88.8994

Elevation: 384.3

Station Type: TP1080WC

http://weather.mambm.com/

High Low Average
Temperature 67.5°F19.7°C 41.9°F5.5°C 54.1°F12.3°C
Dew Point 67.2°F19.6°C 41.6°F5.3°C 53.8°F12.1°C
Winds 12.1 mph 19.5 kmh Calm Calm 2.0 mph WSW3.2 kmh WSW
Wind Gusts 22.1 mph35.6 kmh -- 8.0 mph12.9 kmh
Humidity 99% 99% 99%
Pressure 29.90 in1012.5 mb 29.50 in999.0 mb -
Precipitation 0.78 in19.8 mm - -
Hour Temp Dew Point Humidity Winds Wind Gusts Pressure Precip Precip Rate Daily Precip Total
12:00 AM 61.5°F16.4°C 61.3°F16.3°C 99% Calm Calm 4.5 mph7.2 kmh 29.74 in1007.1 mb 0.19 in4.8 mm 0.00 in0.0 mm 0.19 in4.8 mm
12:15 AM 61.5°F16.4°C 61.3°F16.3°C 99% 1.6 mph NNE2.6 kmh NNE 4.5 mph7.2 kmh 29.74 in1007.1 mb 0.21 in5.3 mm 0.08 in2.0 mm 0.06 in1.5 mm
12:30 AM 61.7°F16.5°C 61.4°F16.3°C 99% 3.1 mph E5.0 kmh E 7.6 mph12.2 kmh 29.73 in1006.8 mb 0.22 in5.6 mm 0.04 in1.0 mm 0.08 in2.0 mm
12:45 AM 64.2°F17.9°C 64.0°F17.8°C 99% 2.2 mph SSE3.5 kmh SSE 15.2 mph24.5 kmh 29.71 in1006.1 mb 0.20 in5.1 mm 0.00 in0.0 mm 0.09 in2.3 mm
01:00 AM 65.5°F18.6°C 65.2°F18.4°C 99% 5.4 mph SSE8.7 kmh SSE 15.9 mph25.6 kmh 29.71 in1006.1 mb 0.09 in2.3 mm 0.00 in0.0 mm 0.09 in2.3 mm
01:15 AM 65.8°F18.8°C 65.6°F18.7°C 99% 3.1 mph S5.0 kmh S 15.9 mph25.6 kmh 29.70 in1005.8 mb 0.04 in1.0 mm 0.00 in0.0 mm 0.09 in2.3 mm
01:30 AM 66.2°F19.0°C 65.9°F18.8°C 99% 6.9 mph S11.1 kmh S 16.8 mph27.0 kmh 29.70 in1005.8 mb 0.04 in1.0 mm 0.00 in0.0 mm 0.12 in3.0 mm
01:45 AM 66.2°F19.0°C 65.9°F18.8°C 99% 3.8 mph S6.1 kmh S 13.6 mph21.9 kmh 29.68 in1005.1 mb 0.08 in2.0 mm 0.16 in4.1 mm 0.18 in4.6 mm
02:00 AM 66.2°F19.0°C 65.9°F18.8°C 99% 4.5 mph SSE7.2 kmh SSE 12.1 mph19.5 kmh 29.67 in1004.7 mb 0.08 in2.0 mm 0.00 in0.0 mm 0.18 in4.6 mm
02:15 AM 66.2°F19.0°C 65.9°F18.8°C 99% 4.5 mph SE7.2 kmh SE 9.2 mph14.8 kmh 29.65 in1004.1 mb 0.08 in2.0 mm 0.00 in0.0 mm 0.18 in4.6 mm
02:30 AM 66.2°F19.0°C 65.9°F18.8°C 99% 4.5 mph SSE7.2 kmh SSE 9.8 mph15.8 kmh 29.64 in1003.7 mb 0.07 in1.8 mm 0.00 in0.0 mm 0.19 in4.8 mm
02:45 AM 66.4°F19.1°C 66.1°F18.9°C 99% 3.1 mph S5.0 kmh S 14.5 mph23.3 kmh 29.63 in1003.4 mb 0.01 in0.3 mm 0.00 in0.0 mm 0.19 in4.8 mm
03:00 AM 66.7°F19.3°C 66.5°F19.2°C 99% 4.5 mph S7.2 kmh S 16.8 mph27.0 kmh 29.63 in1003.4 mb 0.01 in0.3 mm 0.00 in0.0 mm 0.19 in4.8 mm
03:15 AM 67.1°F19.5°C 66.8°F19.3°C 99% 6.0 mph SSE9.7 kmh SSE 15.2 mph24.5 kmh 29.61 in1002.7 mb 0.01 in0.3 mm 0.00 in0.0 mm 0.19 in4.8 mm
03:30 AM 67.3°F19.6°C 67.0°F19.4°C 99% 6.9 mph SSE11.1 kmh SSE 18.3 mph29.5 kmh 29.61 in1002.7 mb 0.02 in0.5 mm 0.04 in1.0 mm 0.21 in5.3 mm
03:45 AM 67.5°F19.7°C 67.2°F19.6°C 99% 6.0 mph S9.7 kmh S 15.9 mph25.6 kmh 29.60 in1002.4 mb 0.02 in0.5 mm 0.00 in0.0 mm 0.21 in5.3 mm
04:00 AM 67.3°F19.6°C 67.0°F19.4°C 99% 6.0 mph S9.7 kmh S 17.4 mph28.0 kmh 29.59 in1002.0 mb 0.05 in1.3 mm 0.04 in1.0 mm 0.24 in6.1 mm
04:15 AM 67.3°F19.6°C 67.0°F19.4°C 99% 6.9 mph S11.1 kmh S 16.8 mph27.0 kmh 29.59 in1002.0 mb 0.06 in1.5 mm 0.04 in1.0 mm 0.26 in6.6 mm
04:30 AM 67.3°F19.6°C 67.0°F19.4°C 99% 4.5 mph S7.2 kmh S 12.1 mph19.5 kmh 29.57 in1001.4 mb 0.07 in1.8 mm 0.04 in1.0 mm 0.28 in7.1 mm
04:45 AM 67.1°F19.5°C 66.8°F19.3°C 99% 6.9 mph E11.1 kmh E 10.7 mph17.2 kmh 29.54 in1000.3 mb 0.11 in2.8 mm 0.16 in4.1 mm 0.32 in8.1 mm
05:00 AM 67.1°F19.5°C 66.8°F19.3°C 99% 5.4 mph SE8.7 kmh SE 10.7 mph17.2 kmh 29.53 in1000.0 mb 0.12 in3.0 mm 0.01 in0.3 mm 0.35 in8.9 mm
05:15 AM 66.7°F19.3°C 66.5°F19.2°C 99% 12.1 mph WSW19.5 kmh WSW 22.1 mph35.6 kmh 29.56 in1001.0 mb 0.24 in6.1 mm 0.48 in12.2 mm 0.50 in12.7 mm
05:30 AM 65.7°F18.7°C 65.4°F18.6°C 99% 4.5 mph WSW7.2 kmh WSW 13.6 mph21.9 kmh 29.57 in1001.4 mb 0.35 in8.9 mm 0.44 in11.2 mm 0.64 in16.3 mm
05:45 AM 65.1°F18.4°C 64.9°F18.3°C 99% 1.6 mph WSW2.6 kmh WSW 6.0 mph9.7 kmh 29.56 in1001.0 mb 0.35 in8.9 mm 0.00 in0.0 mm 0.67 in17.0 mm
06:00 AM 63.0°F17.2°C 62.7°F17.1°C 99% Calm Calm 3.1 mph5.0 kmh 29.55 in1000.7 mb 0.35 in8.9 mm 0.00 in0.0 mm 0.71 in18.0 mm
06:15 AM 61.7°F16.5°C 61.4°F16.3°C 99% 0.7 mph N1.1 kmh N 2.2 mph3.5 kmh 29.52 in999.7 mb 0.20 in5.1 mm 0.00 in0.0 mm 0.73 in18.5 mm
06:30 AM 61.0°F16.1°C 60.7°F15.9°C 99% 1.6 mph NNE2.6 kmh NNE 4.5 mph7.2 kmh 29.50 in999.0 mb 0.11 in2.8 mm 0.00 in0.0 mm 0.74 in18.8 mm
06:45 AM 60.3°F15.7°C 60.0°F15.6°C 99% 0.7 mph N1.1 kmh N 3.8 mph6.1 kmh 29.52 in999.7 mb 0.07 in1.8 mm 0.00 in0.0 mm 0.74 in18.8 mm
07:00 AM 59.4°F15.2°C 59.1°F15.1°C 99% 1.6 mph NW2.6 kmh NW 3.8 mph6.1 kmh 29.52 in999.7 mb 0.05 in1.3 mm 0.00 in0.0 mm 0.76 in19.3 mm
07:15 AM 58.5°F14.7°C 58.2°F14.6°C 99% 1.6 mph NW2.6 kmh NW 6.9 mph11.1 kmh 29.52 in999.7 mb 0.02 in0.5 mm 0.00 in0.0 mm 0.76 in19.3 mm
07:30 AM 57.2°F14.0°C 56.9°F13.8°C 99% 1.6 mph NW2.6 kmh NW 6.0 mph9.7 kmh 29.55 in1000.7 mb 0.01 in0.3 mm 0.00 in0.0 mm 0.76 in19.3 mm
07:45 AM 56.1°F13.4°C 55.9°F13.3°C 99% 0.7 mph NNW1.1 kmh NNW 5.4 mph8.7 kmh 29.58 in1001.7 mb 0.01 in0.3 mm 0.00 in0.0 mm 0.76 in19.3 mm
08:00 AM 55.4°F13.0°C 55.1°F12.8°C 99% 1.6 mph NW2.6 kmh NW 4.5 mph7.2 kmh 29.59 in1002.0 mb 0.00 in0.0 mm 0.00 in0.0 mm 0.76 in19.3 mm
08:15 AM 54.7°F12.6°C 54.4°F12.4°C 99% 0.7 mph NW1.1 kmh NW 3.8 mph6.1 kmh 29.59 in1002.0 mb 0.00 in0.0 mm 0.00 in0.0 mm 0.76 in19.3 mm
08:30 AM 54.0°F12.2°C 53.7°F12.1°C 99% 3.1 mph NW5.0 kmh NW 11.4 mph18.3 kmh 29.58 in1001.7 mb 0.00 in0.0 mm 0.00 in0.0 mm 0.76 in19.3 mm
08:45 AM 53.6°F12.0°C 53.3°F11.8°C 99% 3.1 mph N5.0 kmh N 6.0 mph9.7 kmh 29.59 in1002.0 mb 0.00 in0.0 mm 0.00 in0.0 mm 0.76 in19.3 mm
09:00 AM 53.2°F11.8°C 53.0°F11.7°C 99% 1.6 mph N2.6 kmh N 6.9 mph11.1 kmh 29.61 in1002.7 mb 0.00 in0.0 mm 0.00 in0.0 mm 0.76 in19.3 mm
09:15 AM 52.9°F11.6°C 52.6°F11.4°C 99% 1.6 mph NNW2.6 kmh NNW 13.0 mph20.9 kmh 29.62 in1003.0 mb 0.00 in0.0 mm 0.00 in0.0 mm 0.76 in19.3 mm
09:30 AM 52.5°F11.4°C 52.3°F11.3°C 99% 3.1 mph N5.0 kmh N 6.9 mph11.1 kmh 29.63 in1003.4 mb 0.00 in0.0 mm 0.00 in0.0 mm 0.76 in19.3 mm
09:45 AM 52.5°F11.4°C 52.3°F11.3°C 99% 1.6 mph N2.6 kmh N 7.6 mph12.2 kmh 29.63 in1003.4 mb 0.00 in0.0 mm 0.00 in0.0 mm 0.76 in19.3 mm
10:00 AM 52.5°F11.4°C 52.3°F11.3°C 99% 2.2 mph NNW3.5 kmh NNW 7.6 mph12.2 kmh 29.64 in1003.7 mb 0.00 in0.0 mm 0.00 in0.0 mm 0.76 in19.3 mm
10:15 AM 52.2°F11.2°C 51.9°F11.1°C 99% 1.6 mph N2.6 kmh N 6.0 mph9.7 kmh 29.64 in1003.7 mb 0.00 in0.0 mm 0.00 in0.0 mm 0.76 in19.3 mm
10:30 AM 51.8°F11.0°C 51.5°F10.8°C 99% 0.7 mph N1.1 kmh N 10.7 mph17.2 kmh 29.64 in1003.7 mb 0.00 in0.0 mm 0.00 in0.0 mm 0.76 in19.3 mm
10:45 AM 51.6°F10.9°C 51.4°F10.8°C 99% 6.9 mph N11.1 kmh N 10.7 mph17.2 kmh 29.63 in1003.4 mb 0.00 in0.0 mm 0.00 in0.0 mm 0.76 in19.3 mm
11:00 AM 51.8°F11.0°C 51.5°F10.8°C 99% 0.7 mph N1.1 kmh N 6.9 mph11.1 kmh 29.63 in1003.4 mb 0.00 in0.0 mm 0.00 in0.0 mm 0.76 in19.3 mm
11:15 AM 51.8°F11.0°C 51.5°F10.8°C 99% 1.6 mph N2.6 kmh N 6.0 mph9.7 kmh 29.63 in1003.4 mb 0.00 in0.0 mm 0.00 in0.0 mm 0.76 in19.3 mm
11:30 AM 52.0°F11.1°C 51.7°F10.9°C 99% 3.1 mph N5.0 kmh N 5.4 mph8.7 kmh 29.64 in1003.7 mb 0.00 in0.0 mm 0.00 in0.0 mm 0.76 in19.3 mm
11:45 AM 51.8°F11.0°C 51.5°F10.8°C 99% 3.1 mph N5.0 kmh N 6.9 mph11.1 kmh 29.64 in1003.7 mb 0.00 in0.0 mm 0.00 in0.0 mm 0.76 in19.3 mm
12:00 PM 51.8°F11.0°C 51.5°F10.8°C 99% 0.7 mph N1.1 kmh N 8.3 mph13.4 kmh 29.62 in1003.0 mb 0.00 in0.0 mm 0.00 in0.0 mm 0.76 in19.3 mm
12:15 PM 51.6°F10.9°C 51.4°F10.8°C 99% 1.6 mph NNW2.6 kmh NNW 7.6 mph12.2 kmh 29.63 in1003.4 mb 0.00 in0.0 mm 0.00 in0.0 mm 0.76 in19.3 mm
12:30 PM 52.0°F11.1°C 51.7°F10.9°C 99% 3.1 mph NNW5.0 kmh NNW 6.0 mph9.7 kmh 29.62 in1003.0 mb 0.00 in0.0 mm 0.00 in0.0 mm 0.76 in19.3 mm
12:45 PM 52.0°F11.1°C 51.7°F10.9°C 99% 0.7 mph N1.1 kmh N 5.4 mph8.7 kmh 29.62 in1003.0 mb 0.01 in0.3 mm 0.04 in1.0 mm 0.77 in19.6 mm
01:00 PM 52.3°F11.3°C 52.1°F11.2°C 99% 0.7 mph NW1.1 kmh NW 3.8 mph6.1 kmh 29.63 in1003.4 mb 0.01 in0.3 mm 0.00 in0.0 mm 0.77 in19.6 mm
01:15 PM 52.5°F11.4°C 52.3°F11.3°C 99% Calm Calm 3.1 mph5.0 kmh 29.62 in1003.0 mb 0.01 in0.3 mm 0.00 in0.0 mm 0.77 in19.6 mm
01:30 PM 52.3°F11.3°C 52.1°F11.2°C 99% Calm Calm 3.1 mph5.0 kmh 29.62 in1003.0 mb 0.01 in0.3 mm 0.00 in0.0 mm 0.77 in19.6 mm
01:45 PM 52.3°F11.3°C 52.1°F11.2°C 99% Calm Calm 4.5 mph7.2 kmh 29.63 in1003.4 mb 0.00 in0.0 mm 0.00 in0.0 mm 0.77 in19.6 mm
02:00 PM 52.5°F11.4°C 52.3°F11.3°C 99% 3.1 mph WSW5.0 kmh WSW 6.0 mph9.7 kmh 29.62 in1003.0 mb 0.00 in0.0 mm 0.00 in0.0 mm 0.77 in19.6 mm
02:15 PM 52.2°F11.2°C 51.9°F11.1°C 99% 1.6 mph SW2.6 kmh SW 6.9 mph11.1 kmh 29.63 in1003.4 mb 0.00 in0.0 mm 0.00 in0.0 mm 0.77 in19.6 mm
02:30 PM 52.0°F11.1°C 51.7°F10.9°C 99% Calm Calm 6.9 mph11.1 kmh 29.62 in1003.0 mb 0.00 in0.0 mm 0.00 in0.0 mm 0.77 in19.6 mm
02:45 PM 51.8°F11.0°C 51.5°F10.8°C 99% 3.8 mph W6.1 kmh W 10.7 mph17.2 kmh 29.63 in1003.4 mb 0.00 in0.0 mm 0.00 in0.0 mm 0.77 in19.6 mm
03:00 PM 51.8°F11.0°C 51.5°F10.8°C 99% 3.1 mph SW5.0 kmh SW 10.7 mph17.2 kmh 29.65 in1004.1 mb 0.00 in0.0 mm 0.00 in0.0 mm 0.77 in19.6 mm
03:15 PM 51.8°F11.0°C 51.5°F10.8°C 99% 7.6 mph WSW12.2 kmh WSW 12.1 mph19.5 kmh 29.66 in1004.4 mb 0.00 in0.0 mm 0.00 in0.0 mm 0.77 in19.6 mm
03:30 PM 51.6°F10.9°C 51.4°F10.8°C 99% 4.5 mph W7.2 kmh W 11.4 mph18.3 kmh 29.67 in1004.7 mb 0.00 in0.0 mm 0.00 in0.0 mm 0.77 in19.6 mm
03:45 PM 51.1°F10.6°C 50.8°F10.4°C 99% 3.1 mph WSW5.0 kmh WSW 18.3 mph29.5 kmh 29.68 in1005.1 mb 0.00 in0.0 mm 0.00 in0.0 mm 0.77 in19.6 mm
04:00 PM 51.3°F10.7°C 51.0°F10.6°C 99% 2.2 mph NW3.5 kmh NW 6.9 mph11.1 kmh 29.67 in1004.7 mb 0.00 in0.0 mm 0.00 in0.0 mm 0.77 in19.6 mm
04:15 PM 51.1°F10.6°C 50.8°F10.4°C 99% 0.7 mph WSW1.1 kmh WSW 6.9 mph11.1 kmh 29.69 in1005.4 mb 0.00 in0.0 mm 0.00 in0.0 mm 0.77 in19.6 mm
04:30 PM 50.9°F10.5°C 50.6°F10.3°C 99% 1.6 mph NW2.6 kmh NW 9.2 mph14.8 kmh 29.70 in1005.8 mb 0.01 in0.3 mm 0.04 in1.0 mm 0.78 in19.8 mm
04:45 PM 50.7°F10.4°C 50.5°F10.3°C 99% 0.7 mph NW1.1 kmh NW 4.5 mph7.2 kmh 29.70 in1005.8 mb 0.01 in0.3 mm 0.00 in0.0 mm 0.78 in19.8 mm
05:00 PM 50.7°F10.4°C 50.5°F10.3°C 99% 1.6 mph W2.6 kmh W 6.0 mph9.7 kmh 29.71 in1006.1 mb 0.01 in0.3 mm 0.00 in0.0 mm 0.78 in19.8 mm
05:15 PM 50.5°F10.3°C 50.3°F10.2°C 99% 0.7 mph W1.1 kmh W 11.4 mph18.3 kmh 29.73 in1006.8 mb 0.01 in0.3 mm 0.00 in0.0 mm 0.78 in19.8 mm
05:30 PM 50.4°F10.2°C 50.1°F10.1°C 99% 0.7 mph WNW1.1 kmh WNW 6.0 mph9.7 kmh 29.73 in1006.8 mb 0.00 in0.0 mm 0.00 in0.0 mm 0.78 in19.8 mm
05:45 PM 50.4°F10.2°C 50.1°F10.1°C 99% 0.7 mph W1.1 kmh W 4.5 mph7.2 kmh 29.74 in1007.1 mb 0.00 in0.0 mm 0.00 in0.0 mm 0.78 in19.8 mm
06:00 PM 50.2°F10.1°C 49.9°F9.9°C 99% 0.7 mph NNW1.1 kmh NNW 8.3 mph13.4 kmh 29.75 in1007.5 mb 0.00 in0.0 mm 0.00 in0.0 mm 0.78 in19.8 mm
06:15 PM 49.8°F9.9°C 49.6°F9.8°C 99% 0.7 mph NNW1.1 kmh NNW 6.0 mph9.7 kmh 29.77 in1008.1 mb 0.00 in0.0 mm 0.00 in0.0 mm 0.78 in19.8 mm
06:30 PM 49.5°F9.7°C 49.2°F9.6°C 99% 0.7 mph NNW1.1 kmh NNW 7.6 mph12.2 kmh 29.77 in1008.1 mb 0.00 in0.0 mm 0.00 in0.0 mm 0.78 in19.8 mm
06:45 PM 49.5°F9.7°C 49.2°F9.6°C 99% 0.7 mph NNW1.1 kmh NNW 6.0 mph9.7 kmh 29.78 in1008.5 mb 0.00 in0.0 mm 0.00 in0.0 mm 0.78 in19.8 mm
07:00 PM 49.1°F9.5°C 48.8°F9.3°C 99% 1.6 mph NNW2.6 kmh NNW 5.4 mph8.7 kmh 29.80 in1009.1 mb 0.00 in0.0 mm 0.00 in0.0 mm 0.78 in19.8 mm
07:15 PM 48.9°F9.4°C 48.7°F9.3°C 99% 1.6 mph NNW2.6 kmh NNW 7.6 mph12.2 kmh 29.80 in1009.1 mb 0.00 in0.0 mm 0.00 in0.0 mm 0.78 in19.8 mm
07:30 PM 48.7°F9.3°C 48.5°F9.2°C 99% 3.1 mph WNW5.0 kmh WNW 6.0 mph9.7 kmh 29.83 in1010.2 mb 0.00 in0.0 mm 0.00 in0.0 mm 0.78 in19.8 mm
07:45 PM 48.6°F9.2°C 48.3°F9.1°C 99% 1.6 mph NW2.6 kmh NW 6.0 mph9.7 kmh 29.83 in1010.2 mb 0.00 in0.0 mm 0.00 in0.0 mm 0.78 in19.8 mm
08:00 PM 48.4°F9.1°C 48.1°F8.9°C 99% 0.7 mph NW1.1 kmh NW 6.9 mph11.1 kmh 29.84 in1010.5 mb 0.00 in0.0 mm 0.00 in0.0 mm 0.78 in19.8 mm
08:15 PM 47.8°F8.8°C 47.6°F8.7°C 99% 1.6 mph NW2.6 kmh NW 6.9 mph11.1 kmh 29.84 in1010.5 mb 0.00 in0.0 mm 0.00 in0.0 mm 0.78 in19.8 mm
08:30 PM 47.5°F8.6°C 47.2°F8.4°C 99% 3.1 mph NW5.0 kmh NW 8.3 mph13.4 kmh 29.85 in1010.8 mb 0.00 in0.0 mm 0.00 in0.0 mm 0.78 in19.8 mm
08:45 PM 46.8°F8.2°C 46.5°F8.1°C 99% 0.7 mph N1.1 kmh N 10.7 mph17.2 kmh 29.85 in1010.8 mb 0.00 in0.0 mm 0.00 in0.0 mm 0.78 in19.8 mm
09:00 PM 46.4°F8.0°C 46.1°F7.8°C 99% 2.2 mph NNW3.5 kmh NNW 13.6 mph21.9 kmh 29.86 in1011.2 mb 0.00 in0.0 mm 0.00 in0.0 mm 0.78 in19.8 mm
09:15 PM 46.2°F7.9°C 46.0°F7.8°C 99% 3.1 mph NNW5.0 kmh NNW 6.0 mph9.7 kmh 29.86 in1011.2 mb 0.00 in0.0 mm 0.00 in0.0 mm 0.78 in19.8 mm
09:30 PM 45.7°F7.6°C 45.4°F7.4°C 99% 1.6 mph NNW2.6 kmh NNW 8.3 mph13.4 kmh 29.87 in1011.5 mb 0.00 in0.0 mm 0.00 in0.0 mm 0.78 in19.8 mm
09:45 PM 45.3°F7.4°C 45.1°F7.3°C 99% 3.8 mph N6.1 kmh N 6.9 mph11.1 kmh 29.86 in1011.2 mb 0.00 in0.0 mm 0.00 in0.0 mm 0.78 in19.8 mm
10:00 PM 45.0°F7.2°C 44.7°F7.1°C 99% 1.6 mph NNW2.6 kmh NNW 5.4 mph8.7 kmh 29.88 in1011.9 mb 0.00 in0.0 mm 0.00 in0.0 mm 0.78 in19.8 mm
10:15 PM 45.0°F7.2°C 44.7°F7.1°C 99% 2.2 mph N3.5 kmh N 5.4 mph8.7 kmh 29.88 in1011.9 mb 0.00 in0.0 mm 0.00 in0.0 mm 0.78 in19.8 mm
10:30 PM 45.0°F7.2°C 44.7°F7.1°C 99% 0.7 mph NNW1.1 kmh NNW 4.5 mph7.2 kmh 29.88 in1011.9 mb 0.00 in0.0 mm 0.00 in0.0 mm 0.78 in19.8 mm
10:45 PM 45.1°F7.3°C 44.9°F7.2°C 99% 3.1 mph N5.0 kmh N 6.0 mph9.7 kmh 29.89 in1012.2 mb 0.00 in0.0 mm 0.00 in0.0 mm 0.78 in19.8 mm
11:00 PM 45.1°F7.3°C 44.9°F7.2°C 99% 2.2 mph N3.5 kmh N 13.0 mph20.9 kmh 29.90 in1012.5 mb 0.00 in0.0 mm 0.00 in0.0 mm 0.78 in19.8 mm
11:15 PM 45.1°F7.3°C 44.9°F7.2°C 99% 4.5 mph N7.2 kmh N 9.2 mph14.8 kmh 29.89 in1012.2 mb 0.00 in0.0 mm 0.00 in0.0 mm 0.78 in19.8 mm
11:30 PM 45.1°F7.3°C 44.9°F7.2°C 99% 1.6 mph NNW2.6 kmh NNW 11.4 mph18.3 kmh 29.89 in1012.2 mb 0.00 in0.0 mm 0.00 in0.0 mm 0.78 in19.8 mm
11:45 PM 44.6°F7.0°C 44.3°F6.8°C 99% Calm Calm 5.4 mph8.7 kmh 29.90 in1012.5 mb 0.00 in0.0 mm 0.00 in0.0 mm 0.78 in19.8 mm